Terminal Aerodrome Forecast
Issued by NWS

Home | Current Version | Previous Version | Text Only | Print | Product List | Glossary On
Versions: 1 2 3 4 5 6 7 8 9 10 11 12 13 14 15 16 17 18 19 20 21 22
012
FTUS41 KCAR 222333
TAFHUL
TAF
KHUL 222333Z 2300/2324 02005KT P6SM SCT020 BKN030
     FM230400 03005KT P6SM BKN020
     FM230800 02004KT 2SM BR SCT003 BKN015
     FM231200 01004KT P6SM SCT250=

USA.gov is the U.S. government's official web portal to all federal, state and local government web resources and services.